createdAt,value
2023-05-19T00:01:18.593Z,100017.63
2023-05-19T00:03:53.854Z,100015.22
2023-05-19T00:06:26.834Z,100018.31
2023-05-19T00:09:01.215Z,100015.09
2023-05-19T00:11:29.082Z,100016.22
2023-05-19T00:13:57.126Z,100013.47
2023-05-19T00:16:25.593Z,100009.59
2023-05-19T00:18:53.312Z,100017.03
2023-05-19T00:21:20.654Z,100007.53
2023-05-19T00:23:47.269Z,100020.47
2023-05-19T00:26:13.835Z,100024.34
2023-05-19T00:28:40.477Z,100014.50
2023-05-19T00:31:07.305Z,100012.56
2023-05-19T00:33:34.169Z,100021.28
2023-05-19T00:36:04.423Z,100018.19
2023-05-19T00:38:32.180Z,100019.78
2023-05-19T00:40:59.780Z,100012.59
2023-05-19T00:43:26.758Z,100005.47
2023-05-19T00:45:53.604Z,99994.81
2023-05-19T00:48:20.879Z,100015.34
2023-05-19T00:50:48.660Z,100001.81
2023-05-19T00:53:18.080Z,99999.38
2023-05-19T00:55:46.290Z,100011.88
2023-05-19T00:58:13.941Z,100001.09
2023-05-19T01:00:40.628Z,100001.44
2023-05-19T01:03:13.481Z,100002.56
2023-05-19T01:05:42.282Z,99999.50
2023-05-19T01:08:09.211Z,99998.34
2023-05-19T01:10:35.915Z,99995.13
2023-05-19T01:13:06.661Z,99998.22
2023-05-19T01:16:02.511Z,100001.31
2023-05-19T01:18:58.113Z,100002.47
2023-05-19T01:21:48.764Z,99996.50
2023-05-19T01:24:34.202Z,99994.09
2023-05-19T01:27:36.114Z,99998.31
2023-05-19T01:30:34.103Z,99990.88
2023-05-19T01:33:04.490Z,99998.66
2023-05-19T01:35:33.419Z,99993.03
2023-05-19T01:38:01.661Z,99996.94
2023-05-19T01:40:29.298Z,99988.22
2023-05-19T01:42:58.228Z,99984.19
2023-05-19T01:45:27.388Z,99990.03
2023-05-19T01:47:56.194Z,99984.09
2023-05-19T01:50:23.265Z,99983.75
2023-05-19T01:52:50.724Z,99986.84
2023-05-19T01:55:17.709Z,99989.59
2023-05-19T01:57:59.096Z,99992.69
2023-05-19T02:01:03.505Z,99997.03
2023-05-19T02:03:45.028Z,99985.94
2023-05-19T02:06:46.587Z,99992.34
2023-05-19T02:09:23.308Z,99997.38
2023-05-19T02:11:59.385Z,99988.66
2023-05-19T02:15:04.796Z,99991.75
2023-05-19T02:17:41.615Z,99985.13
2023-05-19T02:20:12.033Z,99983.19
2023-05-19T02:22:38.709Z,99976.88
2023-05-19T02:25:05.667Z,99970.56
2023-05-19T02:27:32.285Z,99965.41
2023-05-19T02:29:58.929Z,99965.75
2023-05-19T02:32:25.554Z,99973.75
2023-05-19T02:34:53.322Z,99976.50
2023-05-19T02:37:23.782Z,99968.59
2023-05-19T02:39:50.435Z,99964.91
2023-05-19T02:42:19.621Z,99970.84
2023-05-19T02:44:46.285Z,99978.19
2023-05-19T02:47:13.498Z,99965.72
2023-05-19T02:49:40.509Z,99966.06
2023-05-19T02:52:07.357Z,99958.94
2023-05-19T02:54:35.422Z,99969.94
2023-05-19T02:57:02.310Z,99960.56
2023-05-19T02:59:29.069Z,99964.78
2023-05-19T03:01:57.535Z,99968.31
2023-05-19T03:04:24.164Z,99969.94
2023-05-19T03:06:50.809Z,99975.88
2023-05-19T03:09:17.426Z,99971.66
2023-05-19T03:11:44.009Z,99972.13
2023-05-19T03:14:10.644Z,99974.88
2023-05-19T03:16:37.299Z,99978.78
2023-05-19T03:19:03.960Z,99971.66
2023-05-19T03:21:32.069Z,99975.81
2023-05-19T03:23:58.854Z,99967.13
2023-05-19T03:26:25.407Z,99982.91
2023-05-19T03:28:52.038Z,99978.22
2023-05-19T03:31:18.794Z,99983.50
2023-05-19T03:33:45.470Z,99986.25
2023-05-19T03:36:12.707Z,99993.25
2023-05-19T03:38:39.500Z,99993.38
2023-05-19T03:41:06.065Z,99998.78
2023-05-19T03:43:32.658Z,99995.47
2023-05-19T03:45:59.318Z,99994.22
2023-05-19T03:48:26.807Z,99994.22
2023-05-19T03:50:54.313Z,99998.47
2023-05-19T03:53:20.941Z,100003.16
2023-05-19T03:55:49.702Z,100001.44
2023-05-19T03:58:16.507Z,100006.72
2023-05-19T04:00:43.234Z,100006.16
2023-05-19T04:03:09.941Z,100013.03
2023-05-19T04:05:36.714Z,100010.06
2023-05-19T04:08:03.314Z,100015.34
2023-05-19T04:10:30.177Z,100014.09
2023-05-19T04:12:56.932Z,100011.34
2023-05-19T04:15:23.581Z,100008.69
2023-05-19T04:17:50.351Z,100015.34
2023-05-19T04:20:17.023Z,100017.88
2023-05-19T04:22:43.604Z,100017.19
2023-05-19T04:25:10.405Z,100016.75
2023-05-19T04:27:39.048Z,100012.59
2023-05-19T04:30:06.690Z,100022.06
2023-05-19T04:32:33.437Z,100017.44
2023-05-19T04:35:00.018Z,100012.28
2023-05-19T04:37:26.704Z,100006.66
2023-05-19T04:39:54.291Z,100015.59
2023-05-19T04:42:21.015Z,100012.84
2023-05-19T04:44:49.310Z,100004.81
2023-05-19T04:47:16.224Z,100014.13
2023-05-19T04:49:43.066Z,100016.25
2023-05-19T04:52:11.177Z,100006.88
2023-05-19T04:54:38.965Z,100017.53
2023-05-19T04:57:05.976Z,100008.47
2023-05-19T04:59:33.183Z,100005.84
2023-05-19T05:01:59.869Z,100006.50
2023-05-19T05:04:26.487Z,100001.38
2023-05-19T05:06:53.040Z,100014.91
2023-05-19T05:09:20.220Z,100008.00
2023-05-19T05:11:47.067Z,100001.81
2023-05-19T05:14:13.925Z,100003.41
2023-05-19T05:16:40.915Z,100010.31
2023-05-19T05:19:07.927Z,100010.66
2023-05-19T05:21:34.977Z,100003.06
2023-05-19T05:24:01.845Z,100012.16
2023-05-19T05:26:33.265Z,100019.25
2023-05-19T05:28:59.966Z,100016.25
2023-05-19T05:31:26.594Z,100032.09
2023-05-19T05:33:53.429Z,100027.56
2023-05-19T05:36:20.048Z,100025.94
2023-05-19T05:38:46.819Z,100026.38
2023-05-19T05:41:13.396Z,100033.00
2023-05-19T05:43:39.981Z,100032.75
2023-05-19T05:46:06.578Z,100041.41
2023-05-19T05:48:33.594Z,100046.44
2023-05-19T05:51:00.745Z,100048.81
2023-05-19T05:53:30.989Z,100048.25
2023-05-19T05:55:58.041Z,100055.41
2023-05-19T05:58:24.671Z,100055.88
2023-05-19T06:00:53.016Z,100064.72
2023-05-19T06:03:22.047Z,100063.09
2023-05-19T06:05:48.763Z,100062.88
2023-05-19T06:08:15.388Z,100059.22
2023-05-19T06:10:45.095Z,100063.72
2023-05-19T06:13:13.127Z,100064.34
2023-05-19T06:15:39.772Z,100065.09
2023-05-19T06:18:06.437Z,100056.50
2023-05-19T06:20:33.188Z,100060.59
2023-05-19T06:23:01.378Z,100058.56
2023-05-19T06:25:28.002Z,100069.25
2023-05-19T06:27:54.702Z,100069.09
2023-05-19T06:30:21.386Z,100059.56
2023-05-19T06:32:48.025Z,100068.69
2023-05-19T06:35:14.728Z,100070.66
2023-05-19T06:37:41.574Z,100074.28
2023-05-19T06:40:08.830Z,100075.66
2023-05-19T06:42:35.401Z,100071.97
2023-05-19T06:45:02.134Z,100073.41
2023-05-19T06:47:28.815Z,100074.13
2023-05-19T06:49:55.670Z,100079.66
2023-05-19T06:52:23.002Z,100077.38
2023-05-19T06:54:50.187Z,100063.22
2023-05-19T06:57:17.022Z,100074.75
2023-05-19T06:59:43.881Z,100067.56
2023-05-19T07:02:11.048Z,100074.91
2023-05-19T07:04:37.674Z,100076.91
2023-05-19T07:07:04.486Z,100073.03
2023-05-19T07:09:31.152Z,100063.84
2023-05-19T07:11:57.796Z,100062.97
2023-05-19T07:14:24.441Z,100066.28
2023-05-19T07:16:51.117Z,100068.16
2023-05-19T07:19:19.770Z,100069.69
2023-05-19T07:21:47.043Z,100064.59
2023-05-19T07:24:13.656Z,100065.41
2023-05-19T07:26:40.536Z,100060.22
2023-05-19T07:29:07.289Z,100060.75
2023-05-19T07:31:34.001Z,100056.28
2023-05-19T07:34:00.712Z,100052.69
2023-05-19T07:36:27.350Z,100055.22
2023-05-19T07:38:53.957Z,100054.75
2023-05-19T07:41:21.576Z,100057.63
2023-05-19T07:43:48.215Z,100063.13
2023-05-19T07:46:14.856Z,100058.94
2023-05-19T07:48:41.483Z,100060.16
2023-05-19T07:51:10.250Z,100061.06
2023-05-19T07:53:37.258Z,100064.75
2023-05-19T07:56:04.760Z,100062.59
2023-05-19T07:58:31.495Z,100071.78
2023-05-19T08:00:59.278Z,100068.16
2023-05-19T08:03:26.927Z,100076.50
2023-05-19T08:05:53.633Z,100074.09
2023-05-19T08:08:20.266Z,100076.50
2023-05-19T08:10:46.893Z,100077.81
2023-05-19T08:13:13.507Z,100078.56
2023-05-19T08:15:40.150Z,100076.63
2023-05-19T08:18:06.955Z,100074.31
2023-05-19T08:20:34.193Z,100080.69
2023-05-19T08:23:01.127Z,100072.47
2023-05-19T08:25:27.665Z,100063.38
2023-05-19T08:27:54.338Z,100055.50
2023-05-19T08:30:20.963Z,100063.44
2023-05-19T08:32:48.730Z,100063.06
2023-05-19T08:35:15.674Z,100061.47
2023-05-19T08:37:42.252Z,100055.09
2023-05-19T08:40:15.963Z,100055.09
2023-05-19T08:42:42.599Z,100054.34
2023-05-19T08:45:09.549Z,100051.97
2023-05-19T08:47:36.487Z,100052.34
2023-05-19T08:50:07.999Z,100061.09
2023-05-19T08:53:01.556Z,100058.31
2023-05-19T08:55:31.068Z,100057.50
2023-05-19T08:57:58.124Z,100051.09
2023-05-19T09:00:25.630Z,100052.56
2023-05-19T09:03:00.801Z,100050.78
2023-05-19T09:05:39.276Z,100052.66
2023-05-19T09:08:05.850Z,100056.66
2023-05-19T09:10:32.424Z,100050.91
2023-05-19T09:12:59.093Z,100045.75
2023-05-19T09:15:28.354Z,100050.88
2023-05-19T09:18:15.191Z,100047.53
2023-05-19T09:20:47.362Z,100050.34
2023-05-19T09:23:17.716Z,100042.44
2023-05-19T09:25:48.180Z,100046.84
2023-05-19T09:28:14.929Z,100042.94
2023-05-19T09:30:41.504Z,100039.81
2023-05-19T09:33:10.067Z,100036.44
2023-05-19T09:35:37.238Z,100023.22
2023-05-19T09:38:03.876Z,100017.66
2023-05-19T09:40:32.193Z,100023.13
2023-05-19T09:42:58.761Z,100014.13
2023-05-19T09:45:27.254Z,100014.19
2023-05-19T09:47:53.986Z,100013.00
2023-05-19T09:50:20.601Z,100019.28
2023-05-19T09:52:48.271Z,100014.03
2023-05-19T09:55:15.571Z,100019.66
2023-05-19T09:57:42.117Z,100020.88
2023-05-19T10:00:13.698Z,100023.25
2023-05-19T10:02:45.269Z,100023.72
2023-05-19T10:05:17.728Z,100025.50
2023-05-19T10:07:45.834Z,100020.59
2023-05-19T10:10:14.119Z,100020.16
2023-05-19T10:12:42.084Z,100013.25
2023-05-19T10:15:13.300Z,100007.59
2023-05-19T10:17:41.652Z,100008.13
2023-05-19T10:20:12.725Z,100007.78
2023-05-19T10:22:40.043Z,100002.53
2023-05-19T10:25:08.095Z,99999.78
2023-05-19T10:27:37.876Z,100000.94
2023-05-19T10:30:12.437Z,100001.44
2023-05-19T10:32:43.058Z,99999.97
2023-05-19T10:35:18.678Z,100004.88
2023-05-19T10:38:03.967Z,99996.13
2023-05-19T10:40:38.966Z,99992.34
2023-05-19T10:43:19.823Z,99985.81
2023-05-19T10:45:49.373Z,99990.91
2023-05-19T10:48:17.015Z,99992.09
2023-05-19T10:50:45.901Z,99987.63
2023-05-19T10:53:18.150Z,99989.66
2023-05-19T10:55:47.678Z,99988.94
2023-05-19T10:58:14.326Z,99986.50
2023-05-19T11:00:41.821Z,99984.13
2023-05-19T11:03:18.810Z,99971.44
2023-05-19T11:05:46.459Z,99971.94
2023-05-19T11:08:13.250Z,99966.97
2023-05-19T11:10:39.909Z,99972.94
2023-05-19T11:13:06.780Z,99974.94
2023-05-19T11:15:37.319Z,99966.00
2023-05-19T11:18:04.765Z,99966.63
2023-05-19T11:20:35.269Z,99972.84
2023-05-19T11:23:09.961Z,99971.00
2023-05-19T11:25:44.707Z,99969.25
2023-05-19T11:28:14.819Z,99972.47
2023-05-19T11:30:43.697Z,99971.59
2023-05-19T11:33:10.956Z,99970.94
2023-05-19T11:35:38.740Z,99966.56
2023-05-19T11:38:07.188Z,99961.47
2023-05-19T11:40:33.824Z,99970.13
2023-05-19T11:43:01.888Z,99966.59
2023-05-19T11:45:31.448Z,99962.25
2023-05-19T11:48:03.125Z,99958.53
2023-05-19T11:50:31.869Z,99959.28
2023-05-19T11:53:00.503Z,99952.81
2023-05-19T11:55:27.610Z,99964.94
2023-05-19T11:58:04.406Z,99951.19
2023-05-19T12:00:40.100Z,99953.44
2023-05-19T12:03:08.715Z,99959.88
2023-05-19T12:05:44.900Z,99956.31
2023-05-19T12:08:12.593Z,99960.97
2023-05-19T12:10:40.234Z,99960.63
2023-05-19T12:13:10.584Z,99954.59
2023-05-19T12:15:38.752Z,99967.00
2023-05-19T12:18:05.750Z,99956.81
2023-05-19T12:20:35.370Z,99957.81
2023-05-19T12:23:03.153Z,99962.44
2023-05-19T12:25:31.293Z,99954.88
2023-05-19T12:28:04.750Z,99948.25
2023-05-19T12:30:33.163Z,99949.59
2023-05-19T12:33:01.452Z,99947.72
2023-05-19T12:35:29.601Z,99938.41
2023-05-19T12:37:56.240Z,99939.19
2023-05-19T12:40:22.936Z,99939.47
2023-05-19T12:42:52.055Z,99942.38
2023-05-19T12:45:22.288Z,99936.94
2023-05-19T12:47:49.750Z,99945.84
2023-05-19T12:50:16.397Z,99934.41
2023-05-19T12:52:53.331Z,99935.94
2023-05-19T12:55:21.071Z,99938.72
2023-05-19T12:57:57.289Z,99933.34
2023-05-19T13:00:28.260Z,99935.75
2023-05-19T13:03:07.391Z,99935.00
2023-05-19T13:05:39.788Z,99921.56
2023-05-19T13:08:07.733Z,99924.03
2023-05-19T13:10:35.585Z,99922.50
2023-05-19T13:13:03.349Z,99924.91
2023-05-19T13:15:32.116Z,99920.28
2023-05-19T13:17:59.924Z,99917.16
2023-05-19T13:20:28.501Z,99908.22
2023-05-19T13:22:55.964Z,99903.13
2023-05-19T13:25:22.708Z,99907.97
2023-05-19T13:27:49.653Z,99901.47
2023-05-19T13:30:16.360Z,99907.44
2023-05-19T13:32:42.957Z,99905.59
2023-05-19T13:35:10.895Z,99896.34
2023-05-19T13:37:37.692Z,99894.66
2023-05-19T13:40:04.992Z,99891.19
2023-05-19T13:42:35.136Z,99883.94
2023-05-19T13:45:02.553Z,99881.41
2023-05-19T13:47:29.621Z,99887.03
2023-05-19T13:49:56.650Z,99873.94
2023-05-19T13:52:23.450Z,99870.25
2023-05-19T13:54:50.015Z,99869.31
2023-05-19T13:57:16.990Z,99870.09
2023-05-19T13:59:57.640Z,99876.63
2023-05-19T14:02:28.343Z,99874.06
2023-05-19T14:04:55.936Z,99873.28
2023-05-19T14:07:22.497Z,99877.56
2023-05-19T14:09:51.078Z,99875.63
2023-05-19T14:12:17.847Z,99877.34
2023-05-19T14:14:44.813Z,99875.19
2023-05-19T14:17:12.382Z,99882.25
2023-05-19T14:19:38.953Z,99876.63
2023-05-19T14:22:05.972Z,99875.53
2023-05-19T14:24:32.625Z,99885.28
2023-05-19T14:26:59.153Z,99890.69
2023-05-19T14:29:25.790Z,99884.13
2023-05-19T14:31:52.407Z,99877.84
2023-05-19T14:34:21.153Z,99881.47
2023-05-19T14:36:49.024Z,99882.59
2023-05-19T14:39:15.762Z,99878.47
2023-05-19T14:41:42.350Z,99866.22
2023-05-19T14:44:08.882Z,99868.75
2023-05-19T14:46:36.213Z,99865.78
2023-05-19T14:49:03.549Z,99868.66
2023-05-19T14:51:30.178Z,99871.66
2023-05-19T14:53:56.776Z,99871.38
2023-05-19T14:56:23.370Z,99865.22
2023-05-19T14:58:49.965Z,99862.59
2023-05-19T15:01:16.601Z,99863.00
2023-05-19T15:03:43.279Z,99858.50
2023-05-19T15:06:10.824Z,99868.16
2023-05-19T15:08:37.880Z,99866.53
2023-05-19T15:11:04.730Z,99862.22
2023-05-19T15:13:31.437Z,99858.25
2023-05-19T15:16:12.497Z,99856.63
2023-05-19T15:18:42.698Z,99860.66
2023-05-19T15:21:09.383Z,99859.75
2023-05-19T15:23:36.173Z,99858.88
2023-05-19T15:26:02.810Z,99858.38
2023-05-19T15:28:29.517Z,99870.75
2023-05-19T15:30:56.122Z,99872.28
2023-05-19T15:33:22.645Z,99875.22
2023-05-19T15:35:51.751Z,99857.47
2023-05-19T15:38:19.484Z,99866.28
2023-05-19T15:40:46.744Z,99868.41
2023-05-19T15:43:13.547Z,99869.38
2023-05-19T15:45:40.127Z,99864.19
2023-05-19T15:48:06.903Z,99855.16
2023-05-19T15:50:33.857Z,99862.47
2023-05-19T15:53:00.675Z,99863.28
2023-05-19T15:55:27.238Z,99859.94
2023-05-19T15:57:53.791Z,99852.31
2023-05-19T16:00:20.537Z,99859.63
2023-05-19T16:02:47.317Z,99849.47
2023-05-19T16:05:13.994Z,99846.78
2023-05-19T16:07:42.082Z,99856.69
2023-05-19T16:10:09.441Z,99847.28
2023-05-19T16:12:36.982Z,99846.56
2023-05-19T16:15:04.075Z,99841.81
2023-05-19T16:17:30.716Z,99851.34
2023-05-19T16:19:57.411Z,99849.75
2023-05-19T16:22:24.958Z,99851.53
2023-05-19T16:24:52.323Z,99850.28
2023-05-19T16:27:19.213Z,99846.09
2023-05-19T16:29:45.897Z,99845.84
2023-05-19T16:32:12.929Z,99841.50
2023-05-19T16:34:39.855Z,99844.22
2023-05-19T16:37:06.529Z,99841.78
2023-05-19T16:39:35.989Z,99838.91
2023-05-19T16:42:03.372Z,99845.28
2023-05-19T16:44:30.036Z,99835.34
2023-05-19T16:46:56.564Z,99830.63
2023-05-19T16:49:23.171Z,99837.16
2023-05-19T16:51:50.089Z,99839.16
2023-05-19T16:54:16.778Z,99835.59
2023-05-19T16:56:43.335Z,99828.84
2023-05-19T16:59:09.924Z,99834.44
2023-05-19T17:01:36.567Z,99826.91
2023-05-19T17:04:03.201Z,99824.94
2023-05-19T17:06:29.760Z,99838.50
2023-05-19T17:08:56.335Z,99838.09
2023-05-19T17:11:22.979Z,99833.75
2023-05-19T17:13:49.557Z,99834.53
2023-05-19T17:16:16.326Z,99835.72
2023-05-19T17:18:43.742Z,99840.53
2023-05-19T17:21:10.718Z,99830.94
2023-05-19T17:23:38.175Z,99833.97
2023-05-19T17:26:04.982Z,99833.81
2023-05-19T17:28:31.757Z,99832.41
2023-05-19T17:30:58.466Z,99840.44
2023-05-19T17:33:25.191Z,99833.34
2023-05-19T17:35:51.772Z,99840.09
2023-05-19T17:38:18.353Z,99841.28
2023-05-19T17:40:44.989Z,99846.44
2023-05-19T17:43:11.586Z,99838.50
2023-05-19T17:45:38.128Z,99854.00
2023-05-19T17:48:05.302Z,99848.81
2023-05-19T17:50:32.286Z,99845.63
2023-05-19T17:52:59.298Z,99840.81
2023-05-19T17:55:29.942Z,99849.97
2023-05-19T17:57:57.444Z,99844.00
2023-05-19T18:00:25.303Z,99844.34
2023-05-19T18:02:52.803Z,99846.31
2023-05-19T18:05:19.976Z,99849.03
2023-05-19T18:07:47.489Z,99849.75
2023-05-19T18:10:15.234Z,99856.88
2023-05-19T18:12:41.893Z,99856.81
2023-05-19T18:15:08.736Z,99851.59
2023-05-19T18:17:35.560Z,99849.13
2023-05-19T18:20:02.389Z,99842.28
2023-05-19T18:22:29.008Z,99840.97
2023-05-19T18:24:56.246Z,99839.69
2023-05-19T18:27:22.801Z,99844.69
2023-05-19T18:29:49.382Z,99837.00
2023-05-19T18:32:17.691Z,99837.28
2023-05-19T18:34:44.394Z,99836.75
2023-05-19T18:37:10.949Z,99842.16
2023-05-19T18:39:37.545Z,99842.13
2023-05-19T18:42:04.328Z,99843.28
2023-05-19T18:44:31.102Z,99836.91
2023-05-19T18:46:57.660Z,99843.63
2023-05-19T18:49:25.096Z,99851.16
2023-05-19T18:51:52.005Z,99846.31
2023-05-19T18:54:20.347Z,99847.84
2023-05-19T18:56:46.943Z,99849.00
2023-05-19T18:59:13.626Z,99851.78
2023-05-19T19:01:40.403Z,99851.38
2023-05-19T19:04:07.013Z,99845.81
2023-05-19T19:06:33.753Z,99851.38
2023-05-19T19:09:00.584Z,99855.31
2023-05-19T19:11:27.713Z,99853.72
2023-05-19T19:13:56.359Z,99860.81
2023-05-19T19:16:23.186Z,99858.06
2023-05-19T19:18:49.834Z,99874.69
2023-05-19T19:21:16.515Z,99862.00
2023-05-19T19:23:43.143Z,99854.00
2023-05-19T19:26:09.849Z,99863.47
2023-05-19T19:28:36.580Z,99863.78
2023-05-19T19:31:03.359Z,99878.78
2023-05-19T19:33:29.928Z,99873.22
2023-05-19T19:35:56.557Z,99877.91
2023-05-19T19:38:23.199Z,99887.44
2023-05-19T19:40:52.274Z,99877.56
2023-05-19T19:43:19.068Z,99883.81
2023-05-19T19:45:45.700Z,99887.31
2023-05-19T19:48:12.501Z,99888.06
2023-05-19T19:50:39.074Z,99890.81
2023-05-19T19:53:05.691Z,99889.91
2023-05-19T19:55:32.409Z,99880.38
2023-05-19T19:57:58.980Z,99887.84
2023-05-19T20:00:25.626Z,99886.63
2023-05-19T20:03:04.273Z,99885.75
2023-05-19T20:05:31.962Z,99893.69
2023-05-19T20:07:58.538Z,99888.09
2023-05-19T20:10:25.172Z,99895.66
2023-05-19T20:12:51.999Z,99892.50
2023-05-19T20:15:18.749Z,99899.28
2023-05-19T20:17:45.904Z,99899.59
2023-05-19T20:20:13.087Z,99900.19
2023-05-19T20:22:39.683Z,99896.69
2023-05-19T20:25:06.610Z,99903.09
2023-05-19T20:27:33.236Z,99901.16
2023-05-19T20:29:59.871Z,99902.66
2023-05-19T20:32:26.559Z,99902.22
2023-05-19T20:34:53.182Z,99899.88
2023-05-19T20:37:21.002Z,99894.19
2023-05-19T20:39:47.802Z,99893.75
2023-05-19T20:42:14.370Z,99890.88
2023-05-19T20:44:41.548Z,99887.94
2023-05-19T20:47:08.532Z,99895.78
2023-05-19T20:49:35.245Z,99893.19
2023-05-19T20:52:02.055Z,99890.31
2023-05-19T20:54:28.614Z,99891.75
2023-05-19T20:56:55.210Z,99892.50
2023-05-19T20:59:21.996Z,99892.63
2023-05-19T21:01:48.633Z,99889.44
2023-05-19T21:04:15.345Z,99888.59
2023-05-19T21:06:41.959Z,99881.44
2023-05-19T21:09:08.785Z,99886.03
2023-05-19T21:11:35.595Z,99880.50
2023-05-19T21:14:04.281Z,99887.63
2023-05-19T21:16:31.541Z,99876.66
2023-05-19T21:18:58.327Z,99877.81
2023-05-19T21:21:25.331Z,99875.63
2023-05-19T21:23:52.195Z,99877.97
2023-05-19T21:26:18.803Z,99877.75
2023-05-19T21:28:45.507Z,99867.19
2023-05-19T21:31:12.396Z,99886.72
2023-05-19T21:33:39.058Z,99887.09
2023-05-19T21:36:05.952Z,99885.69
2023-05-19T21:38:32.500Z,99883.84
2023-05-19T21:40:59.105Z,99876.72
2023-05-19T21:43:25.986Z,99882.97
2023-05-19T21:45:52.595Z,99890.19
2023-05-19T21:48:19.288Z,99884.72
2023-05-19T21:50:45.905Z,99894.03
2023-05-19T21:53:12.612Z,99887.44
2023-05-19T21:55:39.409Z,99892.59
2023-05-19T21:58:06.119Z,99886.88
2023-05-19T22:00:33.029Z,99900.84
2023-05-19T22:02:59.872Z,99899.06
2023-05-19T22:05:27.004Z,99896.25
2023-05-19T22:07:53.656Z,99889.00
2023-05-19T22:10:20.325Z,99892.28
2023-05-19T22:12:47.267Z,99898.75
2023-05-19T22:15:14.536Z,99892.94
2023-05-19T22:17:41.914Z,99901.66
2023-05-19T22:20:09.477Z,99899.50
2023-05-19T22:22:36.298Z,99890.25
2023-05-19T22:25:03.866Z,99890.03
2023-05-19T22:27:30.695Z,99895.31
2023-05-19T22:29:57.382Z,99893.38
2023-05-19T22:32:24.401Z,99886.97
2023-05-19T22:34:51.201Z,99890.81
2023-05-19T22:37:17.761Z,99894.63
2023-05-19T22:39:44.523Z,99895.63
2023-05-19T22:42:11.115Z,99885.25
2023-05-19T22:44:37.660Z,99885.97
2023-05-19T22:47:04.426Z,99879.50
2023-05-19T22:49:31.025Z,99884.94
2023-05-19T22:51:57.599Z,99878.97
2023-05-19T22:54:24.174Z,99878.25
2023-05-19T22:56:50.830Z,99873.25
2023-05-19T22:59:18.032Z,99874.69
2023-05-19T23:01:46.715Z,99865.25
2023-05-19T23:04:14.146Z,99873.16
2023-05-19T23:06:41.626Z,99873.66
2023-05-19T23:09:08.203Z,99875.16
2023-05-19T23:11:35.927Z,99866.59
2023-05-19T23:14:02.601Z,99859.69
2023-05-19T23:16:29.251Z,99847.03
2023-05-19T23:18:55.909Z,99841.50
2023-05-19T23:21:22.552Z,99849.38
2023-05-19T23:23:49.855Z,99851.75
2023-05-19T23:26:16.501Z,99858.53
2023-05-19T23:28:43.313Z,99856.75
2023-05-19T23:31:10.361Z,99849.91
2023-05-19T23:33:37.005Z,99854.63
2023-05-19T23:36:08.309Z,99856.06
2023-05-19T23:38:35.989Z,99853.53
2023-05-19T23:41:02.974Z,99849.91
2023-05-19T23:43:29.599Z,99841.19
2023-05-19T23:45:56.230Z,99850.97
2023-05-19T23:48:22.797Z,99839.09
2023-05-19T23:50:49.424Z,99839.34
2023-05-19T23:53:15.990Z,99843.53
2023-05-19T23:55:42.675Z,99841.56
2023-05-19T23:58:09.301Z,99835.06
